Time;durP1;ratioP1;P1;durP2;ratioP2;P2;SDS_P1;SDS_P2;PMS_P1;PMS_P2;Temp;Humidity;BMP_temperature;BMP_pressure;BME280_temperature;BME280_humidity;BME280_pressure;Samples;Min_cycle;Max_cycle;Signal;HPM_P1;HPM_P2
2021/11/27 00:00:13;;;;;;;11.43;5.55;;;4.60;99.90;;;;;;5055507;28;20025;-85
2021/11/27 00:02:39;;;;;;;7.30;4.47;;;4.70;99.90;;;;;;5055773;28;20489;-85
2021/11/27 00:05:07;;;;;;;6.15;4.28;;;5.10;99.90;;;;;;5055557;28;20044;-86
2021/11/27 00:07:33;;;;;;;7.65;4.47;;;4.70;99.90;;;;;;5051350;28;20041;-85
2021/11/27 00:09:58;;;;;;;6.30;4.63;;;4.60;99.90;;;;;;5056898;28;20018;-85
2021/11/27 00:12:24;;;;;;;7.38;4.55;;;4.60;99.90;;;;;;5055074;28;20071;-85
2021/11/27 00:14:50;;;;;;;7.35;4.32;;;4.60;99.90;;;;;;5055599;28;20025;-85
2021/11/27 00:17:16;;;;;;;7.40;4.43;;;4.70;99.90;;;;;;5055643;28;20036;-84
2021/11/27 00:19:42;;;;;;;8.93;5.05;;;4.90;99.90;;;;;;5050677;28;20025;-85
2021/11/27 00:22:07;;;;;;;7.97;5.45;;;5.00;99.90;;;;;;5054348;28;20043;-85
2021/11/27 00:24:33;;;;;;;7.10;4.78;;;4.50;99.90;;;;;;5054531;28;20029;-84
2021/11/27 00:26:59;;;;;;;7.90;5.20;;;4.50;99.90;;;;;;5053916;28;20087;-84
2021/11/27 00:29:24;;;;;;;8.15;5.30;;;4.90;99.90;;;;;;5048059;28;20044;-84
2021/11/27 00:31:50;;;;;;;11.38;6.82;;;4.50;99.90;;;;;;5064487;28;20057;-85
2021/11/27 00:34:16;;;;;;;9.13;6.63;;;4.50;99.90;;;;;;5053229;28;20029;-84
2021/11/27 00:36:43;;;;;;;8.43;5.55;;;4.60;99.90;;;;;;5054901;28;20075;-85
2021/11/27 00:39:09;;;;;;;7.68;4.97;;;4.60;99.90;;;;;;5063071;28;20040;-84
2021/11/27 00:41:35;;;;;;;6.90;4.50;;;4.50;99.90;;;;;;5062415;28;20158;-84
2021/11/27 00:44:01;;;;;;;7.25;4.43;;;4.50;99.90;;;;;;5054491;28;20024;-85
2021/11/27 00:46:27;;;;;;;7.10;3.85;;;4.40;99.90;;;;;;5050734;28;20017;-84
2021/11/27 00:48:53;;;;;;;5.25;3.97;;;4.40;99.90;;;;;;5057124;28;20421;-84
2021/11/27 00:51:21;;;;;;;4.78;3.97;;;4.60;99.90;;;;;;5054556;28;20043;-85
2021/11/27 00:53:47;;;;;;;5.07;3.03;;;4.60;99.90;;;;;;5056026;28;20489;-85
2021/11/27 00:56:14;;;;;;;7.03;3.78;;;4.20;99.90;;;;;;5063487;28;20032;-85
2021/11/27 00:58:40;;;;;;;5.10;3.45;;;4.10;99.90;;;;;;5049958;28;20037;-85
2021/11/27 01:01:11;;;;;;;6.00;3.83;;;4.50;99.90;;;;;;5054025;28;20468;-85
2021/11/27 01:03:39;;;;;;;6.22;3.63;;;4.40;99.90;;;;;;5053982;28;20029;-86
2021/11/27 01:06:07;;;;;;;5.68;3.63;;;4.30;99.90;;;;;;5054333;28;20119;-85
2021/11/27 01:08:34;;;;;;;4.95;3.25;;;4.10;99.90;;;;;;5053967;28;20379;-85
2021/11/27 01:11:17;;;;;;;4.72;3.25;;;4.00;99.90;;;;;;5053789;28;20028;-85
2021/11/27 01:13:45;;;;;;;4.97;3.00;;;4.00;99.90;;;;;;5037013;28;20017;-85
2021/11/27 01:16:11;;;;;;;4.85;3.33;;;4.20;99.90;;;;;;5049686;28;20083;-85
2021/11/27 01:18:38;;;;;;;5.13;3.33;;;4.10;99.90;;;;;;5055741;28;20531;-86
2021/11/27 01:21:08;;;;;;;5.47;3.22;;;4.20;99.90;;;;;;5053872;28;20036;-85
2021/11/27 01:23:36;;;;;;;4.00;3.05;;;4.20;99.90;;;;;;5053988;28;20021;-85
2021/11/27 01:26:02;;;;;;;3.88;2.72;;;4.20;99.90;;;;;;5047268;28;20044;-83
2021/11/27 01:28:28;;;;;;;4.75;2.83;;;4.80;99.90;;;;;;5049759;28;20046;-85
2021/11/27 01:30:58;;;;;;;3.92;2.45;;;4.50;99.90;;;;;;5056121;28;20095;-85
2021/11/27 01:33:25;;;;;;;4.55;2.65;;;4.40;99.90;;;;;;5053750;28;20079;-85
2021/11/27 01:35:51;;;;;;;3.95;2.22;;;4.30;99.90;;;;;;5053715;28;20029;-85
2021/11/27 01:38:18;;;;;;;2.75;1.80;;;4.20;99.90;;;;;;5052843;28;20028;-85
2021/11/27 01:40:44;;;;;;;5.43;1.42;;;4.40;99.90;;;;;;5047091;28;20029;-85
2021/11/27 01:43:11;;;;;;;2.78;1.70;;;4.40;99.90;;;;;;5053043;28;20391;-85
2021/11/27 01:45:38;;;;;;;2.33;1.67;;;4.70;99.90;;;;;;5055082;28;20098;-85
2021/11/27 01:48:07;;;;;;;2.75;1.70;;;4.60;99.90;;;;;;5054050;28;20037;-85
2021/11/27 01:50:35;;;;;;;2.80;1.98;;;4.50;99.90;;;;;;5053457;28;20556;-85
2021/11/27 01:53:04;;;;;;;4.65;2.15;;;4.80;99.90;;;;;;5047172;28;20017;-85
2021/11/27 01:55:30;;;;;;;4.22;2.00;;;4.70;99.90;;;;;;5033649;28;20057;-85
2021/11/27 01:57:57;;;;;;;2.78;2.20;;;4.50;99.90;;;;;;5067286;28;20099;-85
2021/11/27 02:00:27;;;;;;;3.20;2.17;;;4.80;99.90;;;;;;5054968;28;20039;-85
2021/11/27 02:02:54;;;;;;;2.75;2.00;;;5.00;99.90;;;;;;5058067;28;20036;-85
2021/11/27 02:05:20;;;;;;;2.72;2.00;;;4.60;99.90;;;;;;5057172;28;20040;-85
2021/11/27 02:07:48;;;;;;;2.60;1.85;;;4.60;99.90;;;;;;5055645;28;20044;-85
2021/11/27 02:10:15;;;;;;;2.83;1.75;;;5.00;99.90;;;;;;5055394;28;20112;-85
2021/11/27 02:12:41;;;;;;;2.47;1.92;;;4.70;99.90;;;;;;5059375;28;20166;-85
2021/11/27 02:15:08;;;;;;;3.53;2.20;;;5.10;99.90;;;;;;5057438;28;20539;-85
2021/11/27 02:17:34;;;;;;;3.42;2.05;;;4.80;99.90;;;;;;5056449;28;20029;-85
2021/11/27 02:20:00;;;;;;;3.00;1.98;;;5.20;99.90;;;;;;5055130;28;20036;-85
2021/11/27 02:22:26;;;;;;;2.65;2.10;;;4.80;99.90;;;;;;5053527;28;20535;-85
2021/11/27 02:24:51;;;;;;;3.15;2.33;;;5.00;99.90;;;;;;5059466;28;20429;-85
2021/11/27 02:27:18;;;;;;;3.45;2.50;;;4.90;99.90;;;;;;5058048;28;20017;-86
2021/11/27 02:29:44;;;;;;;2.80;1.58;;;5.30;99.90;;;;;;5057175;28;20032;-85
2021/11/27 02:32:10;;;;;;;4.00;2.50;;;5.10;99.90;;;;;;5057128;28;20436;-86
2021/11/27 02:34:36;;;;;;;3.22;2.15;;;5.10;99.90;;;;;;5053206;28;20037;-86
2021/11/27 02:37:05;;;;;;;3.28;2.22;;;5.20;99.90;;;;;;5058730;28;20025;-84
2021/11/27 02:39:33;;;;;;;3.65;2.63;;;4.80;99.90;;;;;;5056698;28;20108;-85
2021/11/27 02:41:59;;;;;;;3.35;2.13;;;4.80;99.90;;;;;;5056929;28;20027;-85
2021/11/27 02:44:29;;;;;;;4.30;2.45;;;4.70;99.90;;;;;;5057324;28;20033;-85
2021/11/27 02:46:56;;;;;;;4.90;2.97;;;4.70;99.90;;;;;;5055838;28;20080;-85
2021/11/27 02:49:22;;;;;;;4.35;2.63;;;4.90;99.90;;;;;;5053256;28;20075;-86
2021/11/27 02:51:48;;;;;;;5.32;2.85;;;5.10;99.90;;;;;;5059389;28;20492;-86
2021/11/27 02:54:14;;;;;;;4.40;3.00;;;4.70;99.90;;;;;;5047096;28;20056;-86
2021/11/27 02:56:40;;;;;;;5.18;3.25;;;4.20;99.90;;;;;;5055391;28;20025;-86
2021/11/27 02:59:19;;;;;;;6.80;2.80;;;3.80;99.90;;;;;;5055597;28;20124;-87
2021/11/27 03:01:47;;;;;;;4.07;2.65;;;3.40;99.90;;;;;;5049538;28;20474;-87
2021/11/27 03:04:14;;;;;;;4.43;2.88;;;3.40;99.90;;;;;;5054540;28;20021;-88
2021/11/27 03:06:42;;;;;;;5.65;3.67;;;3.40;99.90;;;;;;5056363;28;20043;-87
2021/11/27 03:09:09;;;;;;;5.80;3.53;;;3.30;99.90;;;;;;5056528;28;20036;-86
2021/11/27 03:11:35;;;;;;;6.65;2.40;;;3.40;99.90;;;;;;5045557;28;20028;-84
2021/11/27 03:14:01;;;;;;;6.95;3.35;;;3.30;99.90;;;;;;5055586;28;20032;-85
2021/11/27 03:16:28;;;;;;;5.85;3.13;;;3.30;99.90;;;;;;5052361;28;20095;-85
2021/11/27 03:18:54;;;;;;;6.00;3.75;;;3.20;99.90;;;;;;5058078;28;20029;-85
2021/11/27 03:21:21;;;;;;;8.65;4.35;;;2.90;99.90;;;;;;5055956;28;20504;-85
2021/11/27 03:23:48;;;;;;;6.95;4.50;;;2.90;99.90;;;;;;5056956;28;20501;-85
2021/11/27 03:26:13;;;;;;;4.30;3.03;;;3.00;99.90;;;;;;5056353;28;20016;-86
2021/11/27 03:28:39;;;;;;;7.72;4.47;;;3.00;99.90;;;;;;5052589;28;20029;-86
2021/11/27 03:31:05;;;;;;;8.93;3.40;;;3.10;99.90;;;;;;5051971;28;20037;-86
2021/11/27 03:33:31;;;;;;;7.72;4.47;;;3.10;99.90;;;;;;5056246;28;20055;-86
2021/11/27 03:35:57;;;;;;;9.40;5.13;;;3.10;99.90;;;;;;5055086;28;20021;-85
2021/11/27 03:38:22;;;;;;;7.13;4.28;;;3.10;99.90;;;;;;5054588;28;20293;-86
2021/11/27 03:40:48;;;;;;;7.50;4.18;;;3.00;99.90;;;;;;5049824;28;20552;-86
2021/11/27 03:43:14;;;;;;;9.80;4.80;;;3.10;99.90;;;;;;5054220;28;20044;-86
2021/11/27 03:45:40;;;;;;;7.65;4.88;;;3.10;99.90;;;;;;5049250;28;20601;-86
2021/11/27 03:48:16;;;;;;;8.75;4.70;;;3.10;99.90;;;;;;5055822;28;20047;-86
2021/11/27 03:50:47;;;;;;;10.85;5.65;;;3.10;99.90;;;;;;5055656;28;20048;-86
2021/11/27 03:53:16;;;;;;;7.00;4.38;;;3.10;99.90;;;;;;5055717;28;20032;-86
2021/11/27 03:55:42;;;;;;;9.05;5.38;;;3.10;99.90;;;;;;5049170;28;20464;-86
2021/11/27 03:58:08;;;;;;;9.25;5.20;;;3.20;99.90;;;;;;5055776;28;20033;-87
2021/11/27 04:00:34;;;;;;;5.18;3.60;;;3.20;99.90;;;;;;5056471;28;20555;-86
2021/11/27 04:03:01;;;;;;;8.23;4.68;;;3.10;99.90;;;;;;5055808;28;20436;-87
2021/11/27 04:05:28;;;;;;;5.55;3.42;;;3.20;99.90;;;;;;5070358;28;20044;-87
2021/11/27 04:07:56;;;;;;;7.90;4.25;;;3.20;99.90;;;;;;5087399;28;20028;-87
2021/11/27 04:10:23;;;;;;;7.57;4.50;;;3.20;99.90;;;;;;5070315;28;20043;-87
2021/11/27 04:12:49;;;;;;;5.38;3.35;;;3.20;99.90;;;;;;5092215;28;20055;-87
2021/11/27 04:15:15;;;;;;;6.45;3.80;;;3.20;99.90;;;;;;5069941;28;20032;-87
2021/11/27 04:17:41;;;;;;;7.35;4.43;;;3.30;99.90;;;;;;5085276;28;20031;-87
2021/11/27 04:20:07;;;;;;;8.45;4.03;;;3.30;99.90;;;;;;5068549;28;20024;-87
2021/11/27 04:22:32;;;;;;;7.57;3.95;;;3.30;99.90;;;;;;5086930;28;20370;-87
2021/11/27 04:24:58;;;;;;;7.72;4.70;;;3.30;99.90;;;;;;5093235;28;20031;-87
2021/11/27 04:27:24;;;;;;;5.95;4.10;;;3.30;99.90;;;;;;5067126;28;20020;-87
2021/11/27 04:29:50;;;;;;;9.02;4.05;;;3.30;99.90;;;;;;5086374;28;20040;-87
2021/11/27 04:32:15;;;;;;;6.55;4.13;;;3.30;99.90;;;;;;5086540;28;20055;-87
2021/11/27 04:34:41;;;;;;;7.95;4.68;;;3.20;99.90;;;;;;5086495;28;20025;-87
2021/11/27 04:37:10;;;;;;;7.65;4.60;;;3.30;99.90;;;;;;5073966;28;20020;-87
2021/11/27 04:39:39;;;;;;;7.20;3.97;;;3.30;99.90;;;;;;5086510;28;20427;-87
2021/11/27 04:42:06;;;;;;;7.15;4.05;;;3.30;99.90;;;;;;5086398;28;20020;-87
2021/11/27 04:44:31;;;;;;;5.82;3.60;;;3.30;99.90;;;;;;5069141;28;20028;-87
2021/11/27 04:46:57;;;;;;;5.90;3.58;;;3.30;99.90;;;;;;5086631;28;20032;-87
2021/11/27 04:49:23;;;;;;;6.07;3.67;;;3.40;99.90;;;;;;5087692;28;20037;-87
2021/11/27 04:51:48;;;;;;;8.50;4.32;;;3.40;99.90;;;;;;5090515;28;20028;-87
2021/11/27 04:54:14;;;;;;;3.75;2.20;;;3.40;99.90;;;;;;5066154;28;20369;-87
2021/11/27 04:56:40;;;;;;;6.03;3.58;;;3.40;99.90;;;;;;5067029;28;20024;-87
2021/11/27 04:59:05;;;;;;;5.82;4.05;;;3.50;99.90;;;;;;5085824;28;20028;-87
2021/11/27 05:01:31;;;;;;;5.93;3.35;;;3.50;99.90;;;;;;5086322;28;20025;-87
2021/11/27 05:03:57;;;;;;;3.58;2.22;;;3.40;99.90;;;;;;5083507;28;20020;-87
2021/11/27 05:06:23;;;;;;;5.97;3.60;;;3.40;99.90;;;;;;5055105;28;20047;-87
2021/11/27 05:08:49;;;;;;;4.85;3.42;;;3.40;99.90;;;;;;5054574;28;20033;-87
2021/11/27 05:11:15;;;;;;;5.47;3.90;;;3.40;99.90;;;;;;5046594;28;20036;-87
2021/11/27 05:13:41;;;;;;;5.60;3.88;;;3.40;99.90;;;;;;5030826;28;20144;-88
2021/11/27 05:16:07;;;;;;;6.97;3.50;;;3.50;99.90;;;;;;5049983;28;20116;-86
2021/11/27 05:18:33;;;;;;;5.60;4.00;;;3.40;99.90;;;;;;5054389;28;20029;-87
2021/11/27 05:20:59;;;;;;;4.63;2.83;;;3.50;99.90;;;;;;5053693;28;20028;-87
2021/11/27 05:23:25;;;;;;;4.68;3.10;;;3.50;99.90;;;;;;5045779;28;20033;-88
2021/11/27 05:25:51;;;;;;;6.07;3.40;;;3.50;99.90;;;;;;5052810;28;21714;-87
2021/11/27 05:28:17;;;;;;;3.47;2.33;;;3.50;99.90;;;;;;5051042;28;20037;-87
2021/11/27 05:30:42;;;;;;;6.22;3.83;;;3.60;99.90;;;;;;5055929;28;20025;-88
2021/11/27 05:33:11;;;;;;;6.05;3.63;;;3.60;99.90;;;;;;5052649;28;20024;-88
2021/11/27 05:35:38;;;;;;;5.07;3.33;;;3.50;99.90;;;;;;5052142;28;20043;-88
2021/11/27 05:38:05;;;;;;;5.35;3.45;;;3.50;99.90;;;;;;5054117;28;20028;-87
2021/11/27 05:40:31;;;;;;;5.00;3.67;;;3.50;99.90;;;;;;5049786;28;20026;-88
2021/11/27 05:42:57;;;;;;;5.63;3.33;;;3.50;99.90;;;;;;5063018;28;20521;-87
2021/11/27 05:45:28;;;;;;;4.47;2.97;;;3.50;99.90;;;;;;5054061;28;20029;-87
2021/11/27 05:47:59;;;;;;;4.97;2.25;;;3.60;99.90;;;;;;5056511;28;20489;-88
2021/11/27 05:50:25;;;;;;;5.63;2.80;;;3.70;99.90;;;;;;5062288;28;20052;-87
2021/11/27 05:52:53;;;;;;;4.20;2.55;;;3.50;99.90;;;;;;5052026;28;20056;-87
2021/11/27 05:55:20;;;;;;;3.90;2.63;;;3.60;99.90;;;;;;5050746;28;20253;-87
2021/11/27 05:57:46;;;;;;;5.93;2.47;;;3.70;99.90;;;;;;5055619;28;20025;-87
2021/11/27 06:00:13;;;;;;;2.53;1.73;;;3.60;99.90;;;;;;5043826;28;20021;-87
2021/11/27 06:02:40;;;;;;;3.53;2.33;;;3.70;99.90;;;;;;5042629;28;20033;-88
2021/11/27 06:05:06;;;;;;;2.85;1.60;;;3.80;99.90;;;;;;5053790;28;20123;-88
2021/11/27 06:07:32;;;;;;;4.13;2.90;;;3.90;99.90;;;;;;5047295;28;20025;-87
2021/11/27 06:09:58;;;;;;;3.15;2.30;;;3.90;99.90;;;;;;5055644;28;20167;-88
2021/11/27 06:12:23;;;;;;;3.35;2.40;;;3.90;99.90;;;;;;5055091;28;20452;-88
2021/11/27 06:14:49;;;;;;;3.08;2.08;;;3.90;99.90;;;;;;5054707;28;20032;-86
2021/11/27 06:17:15;;;;;;;4.93;2.50;;;3.90;99.90;;;;;;5063559;28;20035;-86
2021/11/27 06:19:40;;;;;;;2.55;1.83;;;3.90;99.90;;;;;;5047640;28;20422;-86
2021/11/27 06:22:06;;;;;;;3.58;2.40;;;3.90;99.90;;;;;;5063688;28;20025;-85
2021/11/27 06:24:31;;;;;;;3.35;2.13;;;4.00;99.90;;;;;;5055430;28;20135;-85
2021/11/27 06:26:57;;;;;;;3.58;2.50;;;3.90;99.90;;;;;;5053556;28;20401;-85
2021/11/27 06:29:23;;;;;;;2.80;1.70;;;3.90;99.90;;;;;;5044088;28;20447;-85
2021/11/27 06:31:49;;;;;;;3.53;1.92;;;4.00;99.90;;;;;;5052042;28;20021;-86
2021/11/27 06:34:16;;;;;;;4.40;2.85;;;4.00;99.90;;;;;;5047925;28;20030;-85
2021/11/27 06:36:41;;;;;;;4.60;2.78;;;3.90;99.90;;;;;;5066949;28;20052;-84
2021/11/27 06:39:07;;;;;;;5.22;2.88;;;3.90;99.90;;;;;;5056062;28;20064;-85
2021/11/27 06:41:33;;;;;;;5.65;2.85;;;3.80;99.90;;;;;;5053514;28;20109;-85
2021/11/27 06:43:58;;;;;;;3.75;2.15;;;3.80;99.90;;;;;;5052705;28;20035;-85
2021/11/27 06:46:24;;;;;;;4.45;2.67;;;4.10;99.90;;;;;;5050367;28;20465;-85
2021/11/27 06:48:50;;;;;;;4.07;2.50;;;4.20;99.90;;;;;;5058026;28;20090;-85
2021/11/27 06:51:15;;;;;;;3.45;2.08;;;4.00;99.90;;;;;;5066723;28;20480;-85
2021/11/27 06:53:42;;;;;;;5.32;2.30;;;3.80;99.90;;;;;;5061337;28;20106;-85
2021/11/27 06:56:07;;;;;;;5.57;2.90;;;3.90;99.90;;;;;;5056819;28;20024;-85
2021/11/27 06:58:33;;;;;;;5.35;2.20;;;4.00;99.90;;;;;;5052416;28;20414;-85
2021/11/27 07:00:59;;;;;;;3.78;2.33;;;3.90;99.90;;;;;;5058894;28;20486;-85
2021/11/27 07:03:25;;;;;;;4.35;2.67;;;3.80;99.90;;;;;;5046742;28;20037;-85
2021/11/27 07:05:50;;;;;;;5.25;3.03;;;3.90;99.90;;;;;;5056326;28;20069;-85
2021/11/27 07:08:16;;;;;;;3.85;2.83;;;3.90;99.90;;;;;;5056810;28;20049;-85
2021/11/27 07:10:43;;;;;;;5.03;3.40;;;3.80;99.90;;;;;;5049056;28;20022;-84
2021/11/27 07:13:09;;;;;;;3.95;2.30;;;3.90;99.90;;;;;;5057426;28;20389;-84
2021/11/27 07:15:35;;;;;;;4.07;2.45;;;3.80;99.90;;;;;;5060412;28;20028;-85
2021/11/27 07:18:00;;;;;;;2.65;2.10;;;3.70;99.90;;;;;;5064631;28;20020;-85
2021/11/27 07:20:27;;;;;;;4.25;3.20;;;3.70;99.90;;;;;;5064941;28;20036;-86
2021/11/27 07:22:52;;;;;;;5.35;3.15;;;3.80;99.90;;;;;;5054768;28;20033;-86
2021/11/27 07:25:18;;;;;;;5.85;3.20;;;4.00;99.90;;;;;;5053198;28;20025;-85
2021/11/27 07:27:44;;;;;;;3.15;2.13;;;3.90;99.90;;;;;;5058887;28;20021;-85
2021/11/27 07:30:11;;;;;;;4.85;2.88;;;3.90;99.90;;;;;;5044755;28;20086;-86
2021/11/27 07:32:36;;;;;;;4.95;3.20;;;3.80;99.90;;;;;;5044697;28;20032;-85
2021/11/27 07:35:03;;;;;;;5.07;3.53;;;4.10;99.90;;;;;;5054765;28;20028;-85
2021/11/27 07:37:29;;;;;;;5.03;3.60;;;4.20;99.90;;;;;;5051025;28;20028;-85
2021/11/27 07:39:55;;;;;;;4.18;2.75;;;4.20;99.90;;;;;;5057155;28;20028;-87
2021/11/27 07:42:21;;;;;;;2.97;2.05;;;4.20;99.90;;;;;;5056122;28;20037;-86
2021/11/27 07:44:46;;;;;;;4.07;2.97;;;4.30;99.90;;;;;;5056114;28;20073;-85
2021/11/27 07:47:12;;;;;;;4.45;2.90;;;4.20;99.90;;;;;;5055884;28;20063;-86
2021/11/27 07:49:38;;;;;;;4.70;2.90;;;4.20;99.90;;;;;;5052727;28;20035;-86
2021/11/27 07:52:04;;;;;;;4.03;3.17;;;4.30;99.90;;;;;;5056185;28;20036;-86
2021/11/27 07:54:30;;;;;;;3.42;2.33;;;4.30;99.90;;;;;;5053767;28;20021;-86
2021/11/27 07:56:56;;;;;;;4.45;3.08;;;4.30;99.90;;;;;;5044738;28;20048;-86
2021/11/27 07:59:23;;;;;;;5.03;3.63;;;4.50;99.90;;;;;;5062096;28;20036;-86
2021/11/27 08:01:48;;;;;;;4.43;3.10;;;4.50;99.90;;;;;;5066675;28;20083;-86
2021/11/27 08:04:15;;;;;;;4.63;3.20;;;4.50;99.90;;;;;;5053883;28;20029;-86
2021/11/27 08:06:41;;;;;;;4.03;2.60;;;4.60;99.90;;;;;;5057117;28;20037;-86
2021/11/27 08:09:07;;;;;;;5.28;2.95;;;4.80;99.90;;;;;;5064544;28;20150;-86
2021/11/27 08:11:32;;;;;;;3.90;2.40;;;4.70;99.90;;;;;;5061293;28;20125;-86
2021/11/27 08:14:00;;;;;;;5.28;3.15;;;4.80;99.90;;;;;;5052773;28;20486;-86
2021/11/27 08:16:26;;;;;;;5.40;3.17;;;4.70;99.90;;;;;;5049511;28;20031;-86
2021/11/27 08:18:52;;;;;;;5.05;3.00;;;4.70;99.90;;;;;;5057263;28;20375;-86
2021/11/27 08:21:17;;;;;;;5.63;2.58;;;5.00;99.90;;;;;;5054247;28;20036;-85
2021/11/27 08:23:43;;;;;;;6.38;2.97;;;4.70;99.90;;;;;;5045711;28;20035;-86
2021/11/27 08:26:09;;;;;;;4.45;2.55;;;4.70;99.90;;;;;;5053282;28;20513;-86
2021/11/27 08:28:34;;;;;;;2.70;2.25;;;5.00;99.90;;;;;;5050083;28;20533;-86
2021/11/27 08:31:00;;;;;;;4.50;2.92;;;5.10;99.90;;;;;;5056739;28;20029;-86
2021/11/27 08:33:26;;;;;;;3.53;1.92;;;4.90;99.90;;;;;;5055113;28;20036;-86
2021/11/27 08:35:52;;;;;;;4.95;2.97;;;5.00;99.90;;;;;;5053700;28;20509;-85
2021/11/27 08:38:18;;;;;;;5.32;2.70;;;5.10;99.90;;;;;;5054671;28;20029;-86
2021/11/27 08:40:44;;;;;;;4.30;2.92;;;5.40;99.90;;;;;;5052586;28;20047;-86
2021/11/27 08:43:10;;;;;;;6.68;3.45;;;5.70;99.90;;;;;;5050239;28;20393;-86
2021/11/27 08:45:39;;;;;;;4.28;2.88;;;5.90;99.90;;;;;;5055865;28;20069;-86
2021/11/27 08:48:05;;;;;;;3.63;2.60;;;6.40;99.90;;;;;;5052980;28;20029;-83
2021/11/27 08:50:31;;;;;;;4.30;2.50;;;7.50;99.90;;;;;;5044633;28;20021;-86
2021/11/27 08:52:57;;;;;;;2.95;1.42;;;8.10;99.90;;;;;;5053819;28;20020;-86
2021/11/27 08:55:22;;;;;;;4.10;2.50;;;7.00;99.90;;;;;;5051400;28;20038;-86
2021/11/27 08:57:48;;;;;;;4.97;2.53;;;6.80;1.00;;;;;;5056533;28;20025;-86
2021/11/27 09:00:14;;;;;;;4.50;3.03;;;6.40;99.90;;;;;;5054925;28;20500;-86
2021/11/27 09:02:40;;;;;;;6.45;2.78;;;6.00;99.90;;;;;;5054138;28;20044;-86
2021/11/27 09:05:07;;;;;;;4.93;2.78;;;6.80;1.00;;;;;;5053741;28;20551;-86
2021/11/27 09:07:33;;;;;;;5.68;3.15;;;6.70;1.00;;;;;;5050022;28;20021;-86
2021/11/27 09:09:58;;;;;;;3.90;3.08;;;6.40;99.90;;;;;;5055368;28;20029;-85
2021/11/27 09:12:24;;;;;;;6.20;2.95;;;6.30;99.90;;;;;;5054325;28;20501;-85
2021/11/27 09:14:51;;;;;;;4.38;3.10;;;6.70;99.90;;;;;;5054016;28;20029;-83
2021/11/27 09:17:19;;;;;;;5.38;3.28;;;6.90;99.90;;;;;;5052904;28;20449;-85
2021/11/27 09:19:45;;;;;;;3.50;2.65;;;6.60;99.90;;;;;;5051106;28;20104;-86
2021/11/27 09:22:11;;;;;;;4.80;3.00;;;6.50;99.90;;;;;;5053174;28;20082;-85
2021/11/27 09:24:36;;;;;;;4.90;2.80;;;6.70;99.90;;;;;;5047172;28;20059;-85
2021/11/27 09:27:02;;;;;;;3.47;2.45;;;7.10;99.90;;;;;;5052483;28;20060;-85
2021/11/27 09:29:28;;;;;;;4.93;3.17;;;7.40;99.90;;;;;;5051972;28;20403;-86
2021/11/27 09:31:54;;;;;;;4.03;2.60;;;10.50;99.90;;;;;;5051825;28;20020;-85
2021/11/27 09:34:20;;;;;;;4.43;2.60;;;13.20;86.00;;;;;;5050951;28;20671;-85
2021/11/27 09:36:47;;;;;;;3.95;2.75;;;12.80;82.50;;;;;;5055832;28;20064;-85
2021/11/27 09:39:14;;;;;;;2.85;2.00;;;16.10;58.00;;;;;;5053927;28;20574;-85
2021/11/27 09:41:42;;;;;;;3.55;2.30;;;18.00;47.40;;;;;;5053484;28;20024;-86
2021/11/27 09:44:10;;;;;;;3.22;2.13;;;20.60;37.90;;;;;;5054136;28;20035;-85
2021/11/27 09:46:38;;;;;;;3.78;2.40;;;19.90;36.10;;;;;;5049858;28;20029;-85
2021/11/27 09:49:07;;;;;;;3.25;2.63;;;21.70;29.40;;;;;;5054153;28;20470;-85
2021/11/27 09:51:34;;;;;;;4.38;2.50;;;23.70;20.50;;;;;;5052032;28;20389;-85
2021/11/27 09:54:01;;;;;;;3.85;2.30;;;23.90;16.30;;;;;;5053925;28;20064;-85
2021/11/27 09:56:28;;;;;;;3.25;2.00;;;24.10;14.00;;;;;;5053606;28;20511;-85
2021/11/27 09:58:55;;;;;;;3.47;2.65;;;23.10;12.00;;;;;;5052506;28;20017;-85
2021/11/27 10:01:31;;;;;;;3.22;2.30;;;21.50;14.50;;;;;;5050003;28;20043;-84
2021/11/27 10:04:03;;;;;;;4.43;2.17;;;22.90;11.20;;;;;;5055165;28;20029;-84
2021/11/27 10:06:42;;;;;;;3.30;2.60;;;25.80;3.30;;;;;;5053821;28;20063;-84
2021/11/27 10:09:14;;;;;;;4.00;3.20;;;26.10;2.70;;;;;;5051944;28;20025;-84
2021/11/27 10:11:41;;;;;;;3.58;2.55;;;23.00;6.90;;;;;;5053250;28;20075;-83
2021/11/27 10:14:07;;;;;;;2.90;2.08;;;23.60;6.30;;;;;;5053537;28;20016;-84
2021/11/27 10:16:53;;;;;;;3.00;2.10;;;21.90;6.80;;;;;;5049031;28;20124;-84
2021/11/27 10:19:19;;;;;;;3.40;1.95;;;22.20;6.70;;;;;;5049819;28;20037;-84
2021/11/27 10:21:57;;;;;;;4.13;1.90;;;23.90;3.90;;;;;;5057463;28;20033;-84
2021/11/27 10:24:29;;;;;;;2.90;1.80;;;24.20;3.90;;;;;;5057924;28;20028;-83
2021/11/27 10:26:55;;;;;;;2.47;1.95;;;22.80;4.00;;;;;;5047488;28;20386;-83
2021/11/27 10:29:25;;;;;;;3.42;2.00;;;23.40;3.50;;;;;;5057689;28;20036;-83
2021/11/27 10:32:15;;;;;;;2.63;1.45;;;25.70;1.00;;;;;;5054924;28;20108;-83
2021/11/27 10:34:54;;;;;;;3.20;2.40;;;24.70;1.00;;;;;;5037648;28;20025;-83
2021/11/27 10:37:30;;;;;;;4.20;2.63;;;25.10;1.00;;;;;;5054192;28;20033;-85
2021/11/27 10:40:18;;;;;;;3.13;2.30;;;24.00;1.00;;;;;;5060209;28;20047;-85
2021/11/27 10:42:49;;;;;;;4.25;2.80;;;22.30;2.30;;;;;;5056796;28;20052;-85
2021/11/27 10:45:19;;;;;;;3.72;3.00;;;21.60;5.60;;;;;;5055560;28;20136;-85
2021/11/27 10:47:45;;;;;;;3.50;2.65;;;23.40;2.20;;;;;;5055607;28;20392;-84
2021/11/27 10:50:23;;;;;;;4.95;3.28;;;23.50;2.30;;;;;;5057181;28;20027;-85
2021/11/27 10:52:52;;;;;;;5.97;2.60;;;24.80;1.00;;;;;;5054778;28;20020;-85
2021/11/27 10:55:26;;;;;;;3.45;2.40;;;23.70;1.00;;;;;;5053791;28;20389;-90
2021/11/27 10:57:59;;;;;;;3.47;2.80;;;23.70;1.00;;;;;;5058981;28;20055;-93
2021/11/27 11:00:25;;;;;;;3.25;2.60;;;22.70;1.00;;;;;;5055829;28;20392;-85
2021/11/27 11:02:50;;;;;;;3.47;2.42;;;21.00;1.00;;;;;;5057169;28;20028;-84
2021/11/27 11:05:17;;;;;;;3.25;2.55;;;17.70;4.80;;;;;;5068740;28;20048;-84
2021/11/27 11:07:58;;;;;;;3.80;2.55;;;16.80;7.60;;;;;;5088391;28;20024;-85
2021/11/27 11:10:25;;;;;;;3.97;2.50;;;17.10;11.30;;;;;;5089270;28;20029;-86
2021/11/27 11:12:56;;;;;;;3.85;2.72;;;15.50;12.30;;;;;;5092727;28;20103;-86
2021/11/27 11:15:46;;;;;;;2.53;1.92;;;13.80;15.50;;;;;;5087751;28;20061;-87
2021/11/27 11:18:25;;;;;;;3.45;2.75;;;13.20;17.30;;;;;;5087764;28;20024;-86
2021/11/27 11:20:55;;;;;;;3.65;2.45;;;12.50;19.50;;;;;;5070137;28;20028;-86
2021/11/27 11:23:35;;;;;;;3.55;2.30;;;12.10;20.60;;;;;;5078177;28;20098;-86
2021/11/27 11:26:14;;;;;;;5.20;2.40;;;11.40;30.20;;;;;;5086742;28;20020;-89
2021/11/27 11:28:57;;;;;;;3.42;2.38;;;11.40;24.60;;;;;;5041692;28;20036;-90
2021/11/27 11:31:25;;;;;;;5.07;2.60;;;11.00;25.20;;;;;;5090710;28;20506;-91
2021/11/27 11:33:54;;;;;;;3.15;2.20;;;10.60;26.90;;;;;;5093037;28;20024;-92
2021/11/27 11:36:22;;;;;;;3.35;2.13;;;10.50;27.60;;;;;;5088581;28;20032;-89
2021/11/27 11:38:56;;;;;;;3.58;1.80;;;10.10;27.20;;;;;;5071172;28;20499;-89
2021/11/27 11:41:24;;;;;;;3.22;2.22;;;10.10;27.60;;;;;;5087605;28;20458;-86
2021/11/27 11:43:52;;;;;;;3.13;2.17;;;10.10;27.20;;;;;;5087787;28;20020;-88
2021/11/27 11:46:18;;;;;;;5.85;2.50;;;9.90;28.10;;;;;;5070978;28;20036;-86
2021/11/27 11:48:53;;;;;;;4.25;2.47;;;9.90;28.00;;;;;;5092519;28;20035;-86
2021/11/27 11:51:46;;;;;;;3.53;2.35;;;9.90;28.40;;;;;;5087698;28;20025;-85
2021/11/27 11:54:14;;;;;;;3.13;1.95;;;9.90;28.30;;;;;;5087397;28;20025;-88
2021/11/27 11:56:44;;;;;;;3.38;2.05;;;9.80;28.90;;;;;;5087182;28;20031;-86
2021/11/27 11:59:22;;;;;;;2.90;2.03;;;9.70;28.70;;;;;;5086916;28;20492;-86
2021/11/27 12:02:16;;;;;;;2.65;2.00;;;9.70;28.50;;;;;;5090644;28;20053;-96
2021/11/27 12:05:12;;;;;;;3.17;1.92;;;9.70;29.40;;;;;;5051459;28;20052;-85
2021/11/27 12:10:18;;;;;;;3.92;2.00;;;9.80;29.30;;;;;;5055184;28;20059;-85
2021/11/27 12:13:05;;;;;;;3.78;2.33;;;10.00;29.20;;;;;;5055260;28;20025;-82
2021/11/27 12:15:32;;;;;;;4.88;2.45;;;9.70;29.50;;;;;;5052928;28;20029;-83
2021/11/27 12:18:18;;;;;;;3.38;2.20;;;9.50;29.60;;;;;;5055678;28;20055;-84
2021/11/27 12:20:53;;;;;;;4.38;2.30;;;9.20;30.30;;;;;;5055019;28;20025;-84
2021/11/27 12:23:28;;;;;;;5.20;2.70;;;9.20;30.30;;;;;;5055107;28;20058;-83
2021/11/27 12:28:47;;;;;;;3.67;2.28;;;9.00;35.80;;;;;;5032867;28;20044;-84
2021/11/27 12:31:15;;;;;;;4.38;2.67;;;9.10;36.10;;;;;;5050400;28;20033;-84
2021/11/27 12:34:13;;;;;;;2.95;2.10;;;9.40;35.50;;;;;;5056428;28;20029;-84
2021/11/27 12:36:44;;;;;;;4.50;2.63;;;9.50;35.40;;;;;;5007486;28;20045;-84
2021/11/27 12:39:12;;;;;;;4.88;2.92;;;9.50;35.20;;;;;;5004683;28;20029;-84
2021/11/27 12:41:49;;;;;;;3.28;2.50;;;9.70;35.00;;;;;;5002626;28;20442;-83
2021/11/27 12:44:27;;;;;;;4.93;2.92;;;9.80;34.90;;;;;;5002759;28;20033;-84
2021/11/27 12:46:57;;;;;;;5.55;2.42;;;9.80;34.90;;;;;;5004440;28;20026;-84
2021/11/27 12:49:34;;;;;;;4.72;2.20;;;9.80;33.90;;;;;;5005637;28;20100;-83
2021/11/27 12:52:15;;;;;;;3.78;2.42;;;9.70;34.20;;;;;;5006187;28;20040;-84
2021/11/27 12:54:45;;;;;;;3.55;2.15;;;9.90;33.20;;;;;;5007556;28;20046;-84
2021/11/27 12:57:22;;;;;;;5.18;2.47;;;10.00;32.20;;;;;;5003675;28;20489;-84
2021/11/27 13:00:12;;;;;;;7.68;3.35;;;10.10;32.90;;;;;;5004529;28;20494;-83
2021/11/27 13:02:59;;;;;;;3.75;2.30;;;9.80;33.60;;;;;;5002637;28;20485;-83
2021/11/27 13:05:34;;;;;;;4.90;2.35;;;9.80;33.20;;;;;;5015061;28;20401;-84